Airfield :
LOGIN :

Register | Disclaimer

   EN    FR    IT 

 










Legend :    VFR   Marginal VFR   IFR   Intensive IFR   Very Intensive IFR
Visi :
Ceiling :
>= 8 km
>= 3000ft
5 to 8 km
1000 to 3000 ft
1500m to 5 km
500 to 1000 ft
800 to 1500m
200 to 500 ft
< 800m
< 200 ft
Symbols :   Thunderstorms  Fog  Heavy snow  Heavy precipitations  Wind > 20 kt
SIGMETs :     Misc.  Thunderstorms  Icing  Turbulence  Mountain Waves  Volcanic Ashes






- Airport Elevation : 157 ft
- IATA code : LIL


LFQQ - Lille Lesquin

CURRENT METAR :
  • 310200Z AUTO 16006KT 9999 OVC034 13/11 Q1022 NOSIG

EXPIRED METARs :
  • 310130Z AUTO 17004KT 9999 BKN033 OVC039 13/11 Q1022 NOSIG
  • 310100Z AUTO 16003KT 9999 FEW031 OVC038 13/11 Q1022 NOSIG
  • 310030Z AUTO 19006KT 9999 BKN026 OVC035 14/11 Q1022 NOSIG
  • 310000Z AUTO 20008KT 9999 BKN022 BKN027 OVC038 14/11 Q1023 NOSIG
  • 302330Z AUTO 19008KT 9999 OVC022 14/12 Q1023 NOSIG

TAF TAF LFQQ
Valid from the 31 at 00:00 until the 01 at 06:00 UTC


302300Z 3100/0106 20010KT 9999 OVC035
BECMG 3109/3112 18017G27KT
TEMPO 3116/3119 4000 RA OVC013
BECMG 3119/3121 24012KT
BECMG 0100/0103 18012KT
PROB30 0103/0106 BKN008
ATIS : +33 3 20 16 19 54



MET'MAP, your aeronautical weather chart ! - Copyright ORBIFLY December 2007 - Disclaimer

ORBIFLY MET'MAP TEAM :

Programming & Development : Alexandra Zaïnal
Concept & original design : Baudouin d'Aumeries
Assistance for programming : Marc-Olivier Méhu
Technical & hardware support : Manuel Goepfert

Contact : metmap@orbifly.com




SOURCES & CREDITS :

   NOAA